Time;durP1;ratioP1;P1;durP2;ratioP2;P2;SDS_P1;SDS_P2;PMS_P1;PMS_P2;Temp;Humidity;BMP_temperature;BMP_pressure;BME280_temperature;BME280_humidity;BME280_pressure;Samples;Min_cycle;Max_cycle;Signal;HPM_P1;HPM_P2
2023/03/30 00:01:10;;;;;;;5.40;2.40;;;;;;;-2.31;75.16;99850.63;105742;1251;60833;-70
2023/03/30 00:03:42;;;;;;;5.20;2.00;;;;;;;-2.35;75.19;99851.02;105821;1251;60420;-68
2023/03/30 00:06:13;;;;;;;5.80;2.10;;;;;;;-2.30;75.06;99847.10;105754;1256;72744;-67
2023/03/30 00:08:42;;;;;;;4.30;2.20;;;;;;;-2.20;75.06;99846.04;105729;1253;69141;-66
2023/03/30 00:11:12;;;;;;;3.40;2.00;;;;;;;-2.22;74.92;99846.52;105733;1251;72370;-68
2023/03/30 00:13:43;;;;;;;2.50;1.90;;;;;;;-2.30;74.82;99844.84;105680;1251;60479;-67
2023/03/30 00:16:12;;;;;;;4.30;2.40;;;;;;;-2.33;75.19;99845.55;105632;1251;61559;-69
2023/03/30 00:18:40;;;;;;;4.30;1.90;;;;;;;-2.36;75.13;99850.05;105839;1257;73610;-67
2023/03/30 00:21:16;;;;;;;3.60;2.40;;;;;;;-2.41;75.17;99846.83;105642;1252;70570;-67
2023/03/30 00:23:46;;;;;;;3.30;1.90;;;;;;;-2.43;75.00;99842.63;105797;1252;71100;-70
2023/03/30 00:26:15;;;;;;;3.90;1.50;;;;;;;-2.34;74.76;99840.06;105779;1251;60462;-68
2023/03/30 00:28:44;;;;;;;2.70;1.40;;;;;;;-2.26;74.72;99842.74;105772;1251;60993;-68
2023/03/30 00:31:13;;;;;;;3.10;1.80;;;;;;;-2.31;74.66;99846.29;105737;1257;74029;-66
2023/03/30 00:33:42;;;;;;;4.20;2.40;;;;;;;-2.38;74.90;99842.04;105926;1251;70625;-67
2023/03/30 00:36:16;;;;;;;;;;;;;;;-2.45;74.96;99842.39;105772;1251;72821;-68
2023/03/30 00:38:47;;;;;;;3.40;2.00;;;;;;;-2.51;74.92;99840.59;105694;1251;60533;-66
2023/03/30 00:41:16;;;;;;;5.50;2.00;;;;;;;-2.55;74.84;99840.83;105717;1251;61552;-66
2023/03/30 00:43:57;;;;;;;3.80;1.70;;;;;;;-2.47;74.80;99841.43;105783;1253;73130;-66
2023/03/30 00:46:26;;;;;;;3.90;1.90;;;;;;;-2.40;74.83;99841.94;105715;1251;71384;-69
2023/03/30 00:48:57;;;;;;;3.00;1.90;;;;;;;-2.45;74.87;99842.20;105838;1252;72054;-67
2023/03/30 00:51:27;;;;;;;3.00;2.30;;;;;;;-2.49;74.82;99846.24;105737;1257;60488;-66
2023/03/30 00:54:03;;;;;;;4.50;2.30;;;;;;;-2.55;74.94;99848.80;105712;1251;61012;-68
2023/03/30 00:56:32;;;;;;;4.10;2.10;;;;;;;-2.61;74.75;99849.84;105831;1256;75056;-68
2023/03/30 00:59:00;;;;;;;4.50;1.70;;;;;;;-2.56;74.95;99851.45;105719;1254;71641;-70
2023/03/30 01:01:37;;;;;;;3.70;2.10;;;;;;;-2.47;74.76;99852.55;105907;1256;72682;-69
2023/03/30 01:04:08;;;;;;;2.60;1.90;;;;;;;-2.50;74.54;99857.02;105758;1251;60524;-69
2023/03/30 01:06:38;;;;;;;3.60;1.80;;;;;;;-2.56;74.65;99859.79;105880;1251;60482;-69
2023/03/30 01:09:07;;;;;;;2.90;2.00;;;;;;;-2.62;74.80;99856.48;105880;1251;72713;-67
2023/03/30 01:11:43;;;;;;;3.30;2.10;;;;;;;-2.67;74.94;99862.46;105714;1257;71274;-68
2023/03/30 01:14:12;;;;;;;4.90;1.90;;;;;;;-2.71;74.85;99863.86;105638;1251;73856;-68
2023/03/30 01:16:49;;;;;;;4.80;1.90;;;;;;;-2.62;74.61;99867.21;105760;1257;60985;-67
2023/03/30 01:19:42;;;;;;;3.40;1.70;;;;;;;-2.54;74.55;99871.47;105778;1251;60557;-68
2023/03/30 01:22:51;;;;;;;3.60;2.00;;;;;;;-2.59;74.66;99867.41;105846;1256;72685;-66
2023/03/30 01:25:41;;;;;;;2.90;1.70;;;;;;;-2.64;74.84;99874.92;105075;1257;71329;-64
2023/03/30 01:28:28;;;;;;;3.90;2.00;;;;;;;-2.69;74.78;99877.45;105421;1256;346388;-67
2023/03/30 01:34:02;;;;;;;2.90;2.10;;;;;;;-2.76;74.92;99881.27;102546;1297;600293;-64
2023/03/30 01:36:35;;;;;;;3.00;1.70;;;;;;;-2.67;74.62;99884.65;104537;1268;62431;-66
2023/03/30 01:39:09;;;;;;;4.30;2.00;;;;;;;-2.61;74.37;99884.66;104852;1269;59452;-68
2023/03/30 01:41:51;;;;;;;3.60;2.20;;;;;;;-2.67;74.63;99885.86;105074;1263;72944;-68
2023/03/30 01:44:30;;;;;;;3.70;2.00;;;;;;;-2.74;74.86;99884.33;105002;1257;70592;-66
2023/03/30 01:47:04;;;;;;;5.70;2.20;;;;;;;-2.79;74.88;99887.14;105055;1261;214653;-68
2023/03/30 01:49:38;;;;;;;3.70;2.10;;;;;;;-2.81;74.94;99890.20;105264;1257;59810;-67
2023/03/30 01:52:09;;;;;;;4.40;2.00;;;;;;;-2.83;74.76;99893.80;105311;1257;60138;-67
2023/03/30 01:54:50;;;;;;;6.30;2.10;;;;;;;-2.74;74.49;99894.55;105674;1254;73494;-67
2023/03/30 01:57:32;;;;;;;2.90;1.80;;;;;;;-2.70;74.25;99895.89;105230;1255;71415;-68
2023/03/30 02:00:13;;;;;;;4.90;2.20;;;;;;;-2.75;74.34;99898.25;105363;1260;73730;-71
2023/03/30 02:02:54;;;;;;;4.50;2.30;;;;;;;-2.81;74.67;99904.24;105328;1254;59712;-67
2023/03/30 02:05:23;;;;;;;3.60;2.20;;;;;;;-2.85;74.63;99909.50;105218;1256;59731;-68
2023/03/30 02:08:00;;;;;;;;;;;;;;;-2.89;74.62;99908.48;105335;1254;73685;-68
2023/03/30 02:10:31;;;;;;;3.20;2.10;;;;;;;-2.93;74.45;99912.32;105233;1254;70913;-66
2023/03/30 02:13:00;;;;;;;2.90;2.10;;;;;;;-2.86;74.26;99911.45;105323;1260;73639;-67
2023/03/30 02:15:47;;;;;;;3.90;2.10;;;;;;;-2.82;74.21;99913.50;105350;1261;59705;-68
2023/03/30 02:18:18;;;;;;;3.90;2.60;;;;;;;-2.87;74.36;99916.89;105373;1264;60159;-68
2023/03/30 02:20:48;;;;;;;4.20;2.40;;;;;;;-2.92;74.35;99919.23;105491;1258;73960;-64
2023/03/30 02:23:19;;;;;;;4.20;1.90;;;;;;;-2.95;74.46;99922.67;105145;1254;69651;-65
2023/03/30 02:25:48;;;;;;;6.60;3.40;;;;;;;-2.98;74.51;99922.48;105204;1260;73858;-68
2023/03/30 02:28:24;;;;;;;3.60;2.10;;;;;;;-3.01;74.56;99917.93;105275;1261;62240;-68
2023/03/30 02:30:52;;;;;;;2.90;1.90;;;;;;;-2.90;74.44;99921.52;105301;1254;59809;-68
2023/03/30 02:33:27;;;;;;;2.90;2.00;;;;;;;-2.83;74.22;99925.70;105372;1260;72402;-66
2023/03/30 02:36:01;;;;;;;2.70;1.80;;;;;;;-2.88;74.41;99927.17;105132;1263;71255;-67
2023/03/30 02:39:03;;;;;;;3.70;2.10;;;;;;;-2.92;74.46;99928.23;105270;1261;72438;-67
2023/03/30 02:42:11;;;;;;;3.00;2.10;;;;;;;-2.99;74.53;99927.32;105070;1257;60587;-67
2023/03/30 02:45:18;;;;;;;3.40;2.00;;;;;;;-3.03;74.49;99928.96;105038;1257;60559;-66
2023/03/30 02:48:24;;;;;;;4.60;2.20;;;;;;;-3.02;74.55;99930.61;105253;1257;73949;-65
2023/03/30 02:51:17;;;;;;;5.50;2.50;;;;;;;-2.91;74.09;99934.59;105432;1260;67963;-68
2023/03/30 02:54:40;;;;;;;5.20;2.50;;;;;;;-2.98;74.39;99937.17;105382;1257;71995;-67
2023/03/30 02:57:26;;;;;;;3.40;2.20;;;;;;;-3.04;74.53;99934.91;105322;1258;59703;-66
2023/03/30 03:00:00;;;;;;;3.90;2.60;;;;;;;-3.10;74.50;99940.04;105037;1256;59631;-69
2023/03/30 03:02:36;;;;;;;7.50;3.10;;;;;;;-3.14;74.63;99939.55;105195;1261;72218;-67
2023/03/30 03:05:14;;;;;;;3.90;2.70;;;;;;;-3.17;74.66;99939.17;105542;1260;69319;-67
2023/03/30 03:07:52;;;;;;;7.80;3.50;;;;;;;-3.06;74.43;99941.56;105114;1256;72918;-69
2023/03/30 03:10:21;;;;;;;7.00;4.40;;;;;;;-3.01;74.40;99944.25;105230;1257;60751;-66
2023/03/30 03:12:54;;;;;;;5.50;4.20;;;;;;;-3.05;74.49;99942.41;105350;1261;60650;-68
2023/03/30 03:15:23;;;;;;;6.30;4.20;;;;;;;-3.09;74.57;99948.15;105476;1259;73811;-67
2023/03/30 03:18:06;;;;;;;8.10;4.90;;;;;;;-3.15;74.53;99949.84;105451;1256;69878;-69
2023/03/30 03:20:36;;;;;;;8.20;4.50;;;;;;;-3.21;74.62;99951.13;105473;1257;71929;-65
2023/03/30 03:23:06;;;;;;;5.50;3.50;;;;;;;-3.24;74.53;99954.08;105499;1257;60569;-67
2023/03/30 03:25:43;;;;;;;9.50;3.10;;;;;;;-3.14;74.45;99957.92;105530;1258;60189;-69
2023/03/30 03:28:14;;;;;;;5.60;3.00;;;;;;;-3.07;74.39;99960.53;105195;1257;73894;-68
2023/03/30 03:30:48;;;;;;;6.20;3.20;;;;;;;-3.09;74.47;99965.64;105164;1258;71494;-69
2023/03/30 03:33:21;;;;;;;5.30;3.60;;;;;;;-3.12;74.43;99966.15;105211;1256;72608;-66
2023/03/30 03:36:01;;;;;;;5.10;3.30;;;;;;;-3.17;74.46;99966.88;105294;1257;60904;-67
2023/03/30 03:38:31;;;;;;;4.50;3.00;;;;;;;-3.21;74.44;99970.20;105340;1257;60594;-66
2023/03/30 03:40:59;;;;;;;4.10;3.00;;;;;;;-3.25;74.49;99970.39;105467;1259;72378;-68
2023/03/30 03:43:28;;;;;;;4.30;2.80;;;;;;;-3.17;74.24;99968.30;105564;1257;71738;-67
2023/03/30 03:45:58;;;;;;;5.10;2.80;;;;;;;-3.08;74.12;99969.23;105315;1259;72856;-70
2023/03/30 03:48:26;;;;;;;5.40;2.90;;;;;;;-3.08;74.31;99972.48;105660;1256;59699;-71
2023/03/30 03:51:00;;;;;;;;;;;;;;;-3.11;74.31;99971.98;105764;1256;60262;-69
2023/03/30 03:53:32;;;;;;;6.50;3.10;;;;;;;-3.14;74.47;99968.33;105254;1257;72619;-70
2023/03/30 03:56:02;;;;;;;4.50;3.10;;;;;;;-3.18;74.56;99972.99;105616;1258;71462;-68
2023/03/30 03:58:32;;;;;;;4.50;3.40;;;;;;;-3.20;74.59;99976.59;105323;1262;72299;-71
2023/03/30 04:01:00;;;;;;;6.90;3.20;;;;;;;-3.23;74.45;99971.15;105315;1257;60953;-68
2023/03/30 04:03:31;;;;;;;3.40;2.30;;;;;;;-3.13;74.37;99973.96;105291;1260;59609;-68
2023/03/30 04:06:00;;;;;;;5.30;3.20;;;;;;;-3.05;74.17;99975.14;105161;1264;72353;-69
2023/03/30 04:08:29;;;;;;;3.90;2.70;;;;;;;-3.06;74.45;99972.59;105240;1260;70533;-69
2023/03/30 04:11:10;;;;;;;4.40;2.40;;;;;;;-3.09;74.25;99980.70;105478;1259;72534;-68
2023/03/30 04:13:58;;;;;;;6.90;3.00;;;;;;;-3.11;74.18;99983.10;105295;1257;59670;-67
2023/03/30 04:16:45;;;;;;;5.60;3.20;;;;;;;-3.14;74.11;99979.90;105386;1255;61507;-66
2023/03/30 04:19:45;;;;;;;5.40;2.60;;;;;;;-3.10;74.18;99978.86;105219;1259;74016;-68
2023/03/30 04:22:25;;;;;;;3.80;2.40;;;;;;;-2.91;73.82;99977.59;105462;1259;70737;-66
2023/03/30 04:25:04;;;;;;;6.00;2.90;;;;;;;-2.83;73.73;99979.73;105466;1259;73823;-69
2023/03/30 04:27:51;;;;;;;5.60;3.30;;;;;;;-2.83;73.63;99983.21;105332;1257;60556;-67
2023/03/30 04:30:32;;;;;;;6.00;2.90;;;;;;;-2.81;73.63;99986.79;105365;1259;59640;-67
2023/03/30 04:33:20;;;;;;;4.40;3.00;;;;;;;-2.79;73.40;99985.82;105191;1259;72086;-67
2023/03/30 04:36:16;;;;;;;;;;;;;;;-2.77;73.51;99986.75;105486;1256;71397;-68
2023/03/30 04:39:05;;;;;;;4.70;2.30;;;;;;;-2.68;73.11;99984.91;105613;1256;70259;-67
2023/03/30 04:41:53;;;;;;;4.50;2.40;;;;;;;-2.49;72.80;99979.61;105533;1257;59546;-69
2023/03/30 04:44:35;;;;;;;5.50;2.20;;;;;;;-2.45;72.73;99977.86;105260;1257;60880;-70
2023/03/30 04:47:30;;;;;;;4.80;2.70;;;;;;;-2.41;72.81;99985.96;105130;1258;74757;-69
2023/03/30 04:50:22;;;;;;;4.40;3.30;;;;;;;-2.37;72.50;99985.91;105141;1257;70239;-67
2023/03/30 04:53:09;;;;;;;5.70;3.50;;;;;;;-2.30;72.49;99987.83;105520;1259;72974;-67
2023/03/30 04:55:57;;;;;;;6.00;3.30;;;;;;;-2.23;72.08;99993.15;105334;1254;59653;-68
2023/03/30 04:58:41;;;;;;;4.60;3.00;;;;;;;-2.06;71.73;99991.55;105306;1255;61558;-69
2023/03/30 05:01:27;;;;;;;4.60;2.90;;;;;;;-1.88;71.53;99994.98;105469;1256;74139;-67
2023/03/30 05:04:04;;;;;;;6.90;3.30;;;;;;;-1.81;71.38;99997.53;105384;1254;71552;-69
2023/03/30 05:06:43;;;;;;;10.80;4.30;;;;;;;-1.73;71.28;99998.36;105429;1256;72207;-69
2023/03/30 05:09:27;;;;;;;8.20;4.60;;;;;;;-1.68;71.05;99998.59;105488;1256;60465;-67
2023/03/30 05:12:15;;;;;;;7.00;3.70;;;;;;;-1.62;70.63;99997.38;105395;1259;60785;-68
2023/03/30 05:15:03;;;;;;;7.30;3.70;;;;;;;-1.53;70.20;100005.25;105414;1257;72769;-68
2023/03/30 05:17:44;;;;;;;6.70;4.10;;;;;;;-1.35;70.13;100005.80;105388;1256;70535;-66
2023/03/30 05:20:45;;;;;;;5.60;3.40;;;;;;;-1.24;70.12;100000.14;105350;1257;71782;-70
2023/03/30 05:23:32;;;;;;;6.50;3.40;;;;;;;-1.19;69.26;100006.97;105256;1256;59728;-64
2023/03/30 05:26:25;;;;;;;6.50;3.40;;;;;;;-1.18;69.43;100010.56;105161;1256;60739;-66
2023/03/30 05:29:08;;;;;;;5.00;3.20;;;;;;;-1.16;68.97;100007.88;105430;1256;73721;-68
2023/03/30 05:31:52;;;;;;;7.10;3.80;;;;;;;-1.12;69.11;100006.09;105441;1260;70405;-68
2023/03/30 05:34:47;;;;;;;5.10;3.10;;;;;;;-1.06;68.95;100007.84;105222;1256;73631;-66
2023/03/30 05:37:36;;;;;;;6.80;2.70;;;;;;;-0.89;68.26;100009.95;105343;1259;62687;-69
2023/03/30 05:40:23;;;;;;;7.30;2.70;;;;;;;-0.77;68.15;100009.84;105296;1261;59653;-68
2023/03/30 05:43:10;;;;;;;9.60;3.70;;;;;;;-0.73;68.23;100016.02;105416;1255;70859;-67
2023/03/30 05:45:57;;;;;;;5.80;3.20;;;;;;;-0.69;68.24;100013.85;105165;1256;69741;-67
2023/03/30 05:48:33;;;;;;;6.40;3.60;;;;;;;-0.63;68.29;100018.57;105522;1257;71615;-67
2023/03/30 05:51:26;;;;;;;6.60;4.10;;;;;;;-0.55;67.99;100017.05;105391;1256;59649;-67
2023/03/30 05:54:11;;;;;;;10.10;4.00;;;;;;;-0.50;67.66;100025.80;105562;1260;60848;-67
2023/03/30 05:56:45;;;;;;;8.80;3.20;;;;;;;-0.47;67.53;100024.05;105346;1259;74011;-66
2023/03/30 05:59:27;;;;;;;5.90;3.70;;;;;;;-0.28;67.61;100022.92;105414;1256;70613;-69
2023/03/30 06:02:26;;;;;;;7.70;4.60;;;;;;;-0.14;67.23;100014.05;105136;1257;72988;-68
2023/03/30 06:05:00;;;;;;;7.30;4.10;;;;;;;-0.10;67.15;100012.30;105472;1258;60550;-66
2023/03/30 06:07:29;;;;;;;7.10;3.80;;;;;;;-0.08;66.76;100014.42;105343;1259;60439;-66
2023/03/30 06:10:00;;;;;;;7.20;4.20;;;;;;;-0.07;66.66;100011.23;105186;1264;73625;-68
2023/03/30 06:12:30;;;;;;;5.80;3.70;;;;;;;-0.04;66.54;100011.73;105482;1257;71283;-68
2023/03/30 06:15:01;;;;;;;6.00;3.70;;;;;;;0.00;66.48;100012.88;105323;1256;71706;-68
2023/03/30 06:17:48;;;;;;;5.60;3.60;;;;;;;0.01;66.00;100010.00;105288;1256;60620;-68
2023/03/30 06:20:20;;;;;;;4.60;3.10;;;;;;;0.06;66.04;100017.23;105369;1253;60615;-66
2023/03/30 06:22:51;;;;;;;8.90;3.90;;;;;;;0.08;65.83;100017.95;105454;1257;75587;-67
2023/03/30 06:25:23;;;;;;;7.20;3.40;;;;;;;0.24;65.85;100021.35;105616;1254;69716;-68
2023/03/30 06:27:52;;;;;;;5.80;3.70;;;;;;;0.41;65.77;100020.11;105576;1256;71638;-70
2023/03/30 06:30:20;;;;;;;8.60;3.90;;;;;;;0.48;65.75;100025.05;105675;1254;60507;-70
2023/03/30 06:32:52;;;;;;;5.30;3.20;;;;;;;0.53;64.87;100024.92;105648;1253;60624;-70
2023/03/30 06:35:48;;;;;;;6.30;3.80;;;;;;;0.56;64.66;100024.57;105911;1255;74102;-70
2023/03/30 06:38:19;;;;;;;5.00;3.40;;;;;;;0.58;64.29;100022.14;106021;1256;69433;-70
2023/03/30 06:40:47;;;;;;;7.50;3.50;;;;;;;0.58;64.23;100020.41;105553;1259;72689;-69
2023/03/30 06:43:20;;;;;;;5.10;3.40;;;;;;;0.58;64.41;100014.80;105509;1257;60435;-71
2023/03/30 06:46:07;;;;;;;8.10;3.50;;;;;;;0.64;64.51;100017.27;105974;1253;60675;-69
2023/03/30 06:48:35;;;;;;;8.30;3.80;;;;;;;0.68;64.20;100017.35;105831;1258;75246;-70
2023/03/30 06:51:30;;;;;;;5.60;3.10;;;;;;;0.69;63.72;100008.40;105688;1255;69473;-69
2023/03/30 06:53:59;;;;;;;5.30;2.80;;;;;;;0.73;63.78;100015.79;105665;1253;71721;-71
2023/03/30 06:56:27;;;;;;;3.50;2.70;;;;;;;0.78;63.27;100018.41;105489;1253;60644;-69
2023/03/30 06:59:14;;;;;;;4.50;2.50;;;;;;;0.82;62.59;100015.95;105830;1253;60898;-68
2023/03/30 07:02:21;;;;;;;4.80;3.20;;;;;;;0.82;62.86;100012.98;105081;1263;74231;-69
2023/03/30 07:04:51;;;;;;;4.70;2.50;;;;;;;0.86;63.16;100010.80;105474;1259;69466;-68
2023/03/30 07:07:25;;;;;;;7.70;5.40;;;;;;;0.91;62.56;100007.84;105439;1253;73415;-67
2023/03/30 07:09:53;;;;;;;3.60;2.70;;;;;;;0.94;62.28;100006.75;105643;1253;60998;-69
2023/03/30 07:12:24;;;;;;;3.80;2.10;;;;;;;0.98;62.27;100007.77;106086;1253;60310;-69
2023/03/30 07:14:53;;;;;;;4.40;2.10;;;;;;;1.01;62.04;100009.46;105700;1253;73753;-69
2023/03/30 07:17:22;;;;;;;5.60;3.30;;;;;;;1.05;62.32;100012.55;105615;1253;70896;-68
2023/03/30 07:19:57;;;;;;;3.70;2.60;;;;;;;1.09;61.37;100009.64;105754;1253;73646;-70
2023/03/30 07:22:26;;;;;;;5.30;2.10;;;;;;;1.13;61.50;100007.99;106093;1253;60508;-70
2023/03/30 07:24:55;;;;;;;4.10;1.90;;;;;;;1.18;60.83;99998.59;105505;1252;60812;-70
2023/03/30 07:27:26;;;;;;;4.00;2.10;;;;;;;1.22;61.18;99990.11;105557;1258;74207;-70
2023/03/30 07:29:56;;;;;;;4.20;2.20;;;;;;;1.27;60.99;99990.86;105801;1253;69146;-68
2023/03/30 07:32:40;;;;;;;6.20;2.50;;;;;;;1.32;61.26;99989.42;105692;1253;73606;-69
2023/03/30 07:35:09;;;;;;;5.90;2.70;;;;;;;1.37;61.24;99988.92;105384;1254;60467;-69
2023/03/30 07:37:38;;;;;;;3.40;1.90;;;;;;;1.43;61.37;99983.51;105523;1253;60524;-70
2023/03/30 07:40:12;;;;;;;3.40;2.00;;;;;;;1.46;60.71;99982.90;105628;1253;72501;-70
2023/03/30 07:42:42;;;;;;;3.00;1.70;;;;;;;1.49;60.64;99985.88;105990;1252;71969;-67
2023/03/30 07:45:11;;;;;;;2.70;2.10;;;;;;;1.54;60.45;99983.24;105584;1253;73135;-70
2023/03/30 07:47:45;;;;;;;4.30;2.10;;;;;;;1.57;60.00;99977.65;105833;1253;60518;-72
2023/03/30 07:50:15;;;;;;;4.60;2.20;;;;;;;1.57;60.59;99969.44;105686;1253;60327;-73
2023/03/30 07:52:45;;;;;;;2.70;1.70;;;;;;;1.58;60.51;99972.86;106003;1255;73893;-73
2023/03/30 07:55:14;;;;;;;2.40;1.70;;;;;;;1.59;60.21;99968.80;105825;1253;69915;-71
2023/03/30 07:57:48;;;;;;;2.80;1.90;;;;;;;1.61;60.19;99971.45;105872;1253;72646;-73
2023/03/30 08:00:18;;;;;;;3.60;2.50;;;;;;;1.65;60.67;99972.89;105843;1258;60460;-74
2023/03/30 08:03:07;;;;;;;3.40;1.90;;;;;;;1.68;60.89;99975.13;106058;1251;60399;-74
2023/03/30 08:05:37;;;;;;;3.30;1.80;;;;;;;1.69;61.32;99969.86;105866;1253;74090;-73
2023/03/30 08:08:15;;;;;;;4.00;2.00;;;;;;;1.72;61.34;99972.59;106053;1253;70710;-73
2023/03/30 08:10:44;;;;;;;4.70;2.20;;;;;;;1.77;61.03;99967.84;105940;1258;73259;-72
2023/03/30 08:13:14;;;;;;;4.40;3.10;;;;;;;1.84;60.90;99969.71;106064;1253;60516;-78
2023/03/30 08:15:44;;;;;;;3.50;2.10;;;;;;;1.88;61.52;99970.26;105948;1253;61554;-72
2023/03/30 08:18:13;;;;;;;3.30;2.00;;;;;;;1.91;62.05;99965.20;106116;1253;73459;-70
2023/03/30 08:20:44;;;;;;;2.90;1.60;;;;;;;1.95;61.90;99957.23;106252;1253;70397;-73
2023/03/30 08:23:12;;;;;;;2.60;1.80;;;;;;;2.02;61.72;99956.41;106180;1253;73643;-72
2023/03/30 08:25:41;;;;;;;3.40;2.20;;;;;;;2.07;61.62;99959.35;106419;1253;60417;-71
2023/03/30 08:28:13;;;;;;;4.70;2.60;;;;;;;2.15;61.76;99961.73;106751;1251;60440;-74
2023/03/30 08:30:41;;;;;;;4.80;2.90;;;;;;;2.28;62.00;99962.21;106962;1253;71491;-74
2023/03/30 08:33:12;;;;;;;3.60;2.30;;;;;;;2.41;61.92;99958.00;106719;1253;70453;-73
2023/03/30 08:35:46;;;;;;;4.10;2.00;;;;;;;2.53;62.44;99953.64;106357;1253;73973;-73
2023/03/30 08:38:16;;;;;;;4.60;3.50;;;;;;;2.67;61.69;99951.17;106431;1252;60478;-74
2023/03/30 08:40:46;;;;;;;4.20;2.50;;;;;;;2.78;60.90;99946.36;106445;1253;59314;-74
2023/03/30 08:43:29;;;;;;;7.40;4.00;;;;;;;2.83;61.03;99942.85;106507;1252;72798;-75
2023/03/30 08:46:03;;;;;;;3.10;2.50;;;;;;;2.90;61.34;99938.43;106663;1253;70995;-75
2023/03/30 08:48:36;;;;;;;3.70;1.70;;;;;;;2.98;60.37;99934.22;107264;1253;71703;-71
2023/03/30 08:51:11;;;;;;;3.10;2.00;;;;;;;3.03;60.01;99931.21;107658;1253;60426;-74
2023/03/30 08:53:40;;;;;;;5.60;2.30;;;;;;;3.11;60.71;99930.77;108112;1253;60512;-74
2023/03/30 08:56:16;;;;;;;5.50;2.60;;;;;;;3.22;60.91;99921.59;107928;1253;72988;-74
2023/03/30 08:59:22;;;;;;;6.30;2.20;;;;;;;3.34;60.80;99924.50;107578;1256;68979;-76
2023/03/30 09:01:59;;;;;;;2.60;1.80;;;;;;;3.48;61.11;99923.41;107715;1252;72678;-77
2023/03/30 09:04:40;;;;;;;2.50;2.00;;;;;;;3.67;61.50;99924.98;107782;1252;60444;-74
2023/03/30 09:07:25;;;;;;;3.70;2.00;;;;;;;3.88;62.34;99925.58;108142;1252;59285;-76
2023/03/30 09:09:54;;;;;;;4.60;2.10;;;;;;;4.09;60.96;99921.83;107272;1253;72410;-75
2023/03/30 09:12:59;;;;;;;3.00;2.30;;;;;;;4.33;61.75;99921.31;108444;1253;69360;-76
2023/03/30 09:15:35;;;;;;;3.10;2.10;;;;;;;4.71;61.76;99918.97;107592;1253;73738;-76
2023/03/30 09:18:06;;;;;;;4.00;2.30;;;;;;;5.16;60.28;99914.89;107415;1253;60559;-75
2023/03/30 09:20:36;;;;;;;3.90;2.10;;;;;;;5.70;63.76;99905.58;107978;1253;60549;-76
2023/03/30 09:23:12;;;;;;;5.20;2.10;;;;;;;6.46;68.96;99912.64;108220;1255;74831;-78
2023/03/30 09:25:57;;;;;;;3.60;2.10;;;;;;;7.24;74.06;99906.00;108141;1253;69140;-75
2023/03/30 09:28:58;;;;;;;2.30;1.80;;;;;;;7.95;73.84;99904.70;108161;1253;72311;-76
2023/03/30 09:31:45;;;;;;;4.30;2.10;;;;;;;8.31;64.26;99899.77;107657;1253;60371;-76
2023/03/30 09:34:23;;;;;;;2.50;1.90;;;;;;;8.56;69.62;99903.94;108305;1253;60530;-76
2023/03/30 09:37:12;;;;;;;3.20;1.80;;;;;;;8.97;75.51;99900.34;108334;1256;75168;-75
2023/03/30 09:39:40;;;;;;;4.40;2.00;;;;;;;9.65;70.94;99895.58;108555;1253;68955;-76
2023/03/30 09:42:32;;;;;;;2.70;2.40;;;;;;;10.11;67.51;99889.42;108966;1253;70769;-74
2023/03/30 09:45:40;;;;;;;;;;;;;;;10.47;63.35;99887.60;108831;1253;60348;-74
2023/03/30 09:48:08;;;;;;;6.20;4.10;;;;;;;10.74;66.32;99886.15;108196;1260;59803;-75
2023/03/30 09:50:45;;;;;;;5.80;3.80;;;;;;;11.20;61.88;99883.42;108671;1260;73852;-76
2023/03/30 09:53:28;;;;;;;5.30;4.40;;;;;;;11.57;57.58;99881.30;108563;1252;69455;-75
2023/03/30 09:56:18;;;;;;;3.00;2.60;;;;;;;11.86;57.66;99882.64;109311;1252;72257;-77
2023/03/30 09:58:47;;;;;;;4.20;2.70;;;;;;;12.14;54.98;99876.04;109119;1253;59564;-76
2023/03/30 10:01:17;;;;;;;4.00;3.30;;;;;;;12.46;58.42;99872.35;109171;1252;58884;-75
2023/03/30 10:04:11;;;;;;;4.30;3.20;;;;;;;12.95;58.36;99867.73;109189;1252;71659;-74
2023/03/30 10:06:48;;;;;;;5.30;3.80;;;;;;;13.58;59.50;99858.59;109068;1255;70290;-73
2023/03/30 10:09:17;;;;;;;3.60;2.60;;;;;;;14.08;50.02;99863.86;109048;1253;71442;-73
2023/03/30 10:11:47;;;;;;;3.80;2.40;;;;;;;14.41;47.34;99863.52;109072;1252;60738;-74
2023/03/30 10:14:30;;;;;;;3.40;2.40;;;;;;;14.62;46.10;99859.67;108995;1252;58858;-73
2023/03/30 10:17:05;;;;;;;2.30;2.10;;;;;;;14.72;44.42;99861.01;108823;1253;73905;-74
2023/03/30 10:19:34;;;;;;;2.80;2.50;;;;;;;14.78;48.51;99862.25;108950;1252;70494;-75
2023/03/30 10:22:16;;;;;;;3.10;1.80;;;;;;;15.06;46.31;99860.02;109040;1252;70777;-73
2023/03/30 10:24:54;;;;;;;2.30;1.90;;;;;;;15.22;41.73;99855.76;108618;1253;60543;-73
2023/03/30 10:27:32;;;;;;;1.70;1.40;;;;;;;15.25;45.82;99851.12;107627;1253;60345;-76
2023/03/30 10:30:11;;;;;;;4.50;1.90;;;;;;;15.53;42.69;99843.38;108486;1253;73056;-77
2023/03/30 10:32:43;;;;;;;2.30;2.10;;;;;;;15.66;40.63;99838.30;107607;1252;70144;-78
2023/03/30 10:35:18;;;;;;;2.00;1.70;;;;;;;15.66;40.50;99838.97;108874;1252;73092;-76
2023/03/30 10:37:47;;;;;;;2.60;2.10;;;;;;;15.77;40.10;99835.58;108678;1253;60186;-75
2023/03/30 10:40:39;;;;;;;2.30;1.70;;;;;;;15.80;38.46;99833.75;107989;1253;60603;-76
2023/03/30 10:43:22;;;;;;;2.80;2.00;;;;;;;15.84;41.46;99831.86;108270;1253;73394;-78
2023/03/30 10:45:55;;;;;;;1.80;1.70;;;;;;;16.26;41.11;99834.41;107833;1258;69566;-77
2023/03/30 10:49:04;;;;;;;2.20;1.90;;;;;;;16.74;42.23;99825.58;108020;1252;72206;-76
2023/03/30 10:51:38;;;;;;;2.00;1.80;;;;;;;17.19;40.29;99822.20;108896;1252;60002;-74
2023/03/30 10:54:31;;;;;;;1.90;1.70;;;;;;;17.41;39.18;99819.89;109119;1252;58090;-77
2023/03/30 10:57:13;;;;;;;3.50;2.00;;;;;;;17.70;38.59;99823.42;109222;1252;72897;-75
2023/03/30 10:59:54;;;;;;;3.00;1.90;;;;;;;18.06;36.13;99820.36;108685;1253;69997;-73
2023/03/30 11:02:50;;;;;;;2.00;1.80;;;;;;;18.18;36.14;99820.78;108486;1253;72849;-76
2023/03/30 11:05:34;;;;;;;3.00;1.90;;;;;;;18.31;37.36;99819.27;107262;1253;60931;-76
2023/03/30 11:08:15;;;;;;;2.40;2.20;;;;;;;18.68;38.25;99817.96;107280;1253;60566;-75
2023/03/30 11:10:47;;;;;;;4.50;4.10;;;;;;;19.19;36.05;99813.22;107520;1252;73910;-75
2023/03/30 11:13:26;;;;;;;4.10;3.60;;;;;;;19.44;35.30;99803.66;108769;1253;69175;-77
2023/03/30 11:16:01;;;;;;;5.40;3.70;;;;;;;19.59;34.89;99796.94;107912;1254;72643;-75
2023/03/30 11:18:37;;;;;;;4.00;2.90;;;;;;;19.86;35.52;99796.42;107951;1253;60589;-73
2023/03/30 11:21:30;;;;;;;2.80;2.50;;;;;;;20.26;35.27;99789.48;107013;1252;60527;-78
2023/03/30 11:24:17;;;;;;;2.40;1.90;;;;;;;20.79;34.33;99787.42;107828;1252;72005;-75
2023/03/30 11:26:54;;;;;;;2.50;2.10;;;;;;;21.14;31.55;99785.17;108026;1253;70261;-76
2023/03/30 11:29:32;;;;;;;3.20;2.00;;;;;;;20.98;30.48;99784.34;107632;1258;71403;-76
2023/03/30 11:32:29;;;;;;;1.80;1.70;;;;;;;20.69;32.20;99781.95;106331;1253;61544;-76
2023/03/30 11:35:08;;;;;;;4.40;1.90;;;;;;;20.66;30.55;99780.36;106194;1256;60459;-74
2023/03/30 11:37:50;;;;;;;2.00;1.80;;;;;;;20.34;30.75;99780.68;105873;1258;74145;-77
2023/03/30 11:40:24;;;;;;;1.80;1.70;;;;;;;20.32;32.15;99779.98;105850;1253;70923;-77
2023/03/30 11:42:54;;;;;;;2.40;1.90;;;;;;;20.83;30.82;99780.95;105884;1257;72862;-76
2023/03/30 11:45:42;;;;;;;2.20;2.00;;;;;;;20.91;30.88;99776.35;105811;1253;60524;-74
2023/03/30 11:48:24;;;;;;;2.00;1.80;;;;;;;20.83;30.49;99771.04;105827;1253;60757;-75
2023/03/30 11:51:08;;;;;;;2.10;1.90;;;;;;;20.75;30.99;99764.33;105702;1253;75208;-75
2023/03/30 11:53:51;;;;;;;2.00;1.80;;;;;;;21.10;30.51;99764.97;105732;1253;71273;-72
2023/03/30 11:56:27;;;;;;;2.10;1.80;;;;;;;21.57;29.21;99761.27;105825;1257;71914;-75
2023/03/30 11:59:03;;;;;;;2.70;2.30;;;;;;;21.67;27.70;99761.23;105851;1253;60544;-75
2023/03/30 12:02:02;;;;;;;2.50;2.30;;;;;;;21.37;27.83;99757.69;105629;1251;60520;-75
2023/03/30 12:04:44;;;;;;;2.20;2.00;;;;;;;21.00;27.96;99759.21;105838;1253;74289;-75
2023/03/30 12:07:44;;;;;;;2.40;1.60;;;;;;;21.07;28.53;99753.17;105744;1253;71297;-78
2023/03/30 12:10:17;;;;;;;1.80;1.70;;;;;;;21.18;27.25;99756.37;105904;1253;73204;-76
2023/03/30 12:13:01;;;;;;;3.20;2.00;;;;;;;21.09;28.06;99753.47;105732;1253;61265;-76
2023/03/30 12:15:35;;;;;;;1.90;1.70;;;;;;;21.29;27.45;99750.14;105882;1253;60538;-75
2023/03/30 12:18:28;;;;;;;2.00;1.80;;;;;;;21.51;28.08;99753.79;105942;1253;72859;-75
2023/03/30 12:21:17;;;;;;;2.80;1.70;;;;;;;21.97;26.80;99753.96;105791;1258;70612;-76